Olmsted, Illinois
Current Conditions -  °F | °C
As of 12:35 PM on Saturday 25 Oct 2014 (Local Time) from KCIR Reporting Station
Clear Clear  
Wind Chill: 76°   Ceiling: Unl
Heat Index: 76°   Visibility: 10mi
Dew Point: 61°   Wind: 3mph
Humidity: 60%   Direction: 210°SSW
Pressure: 30.03"   Gusts: NA
Location:  37.18°N, 89.09°W
Report Text: KCIR 251735Z AUTO 21003KT 10SM CLR 24/16 A3003 RMK AO2 P0001 T02420159
Loading
Personal Weather Stations






























Interactive Weather Map
Tropical Storm Tracking
New forecast layout! Learn more

10-Day Weather Forecast

Advertisements
Track Severe Weather on mobile